sensor_id;sensor_type;location;lat;lon;timestamp;P1;P2;P0
45440;PMS5003;31189;38.790;-77.084;2023-02-28T00:01:35;10;8;
45440;PMS5003;31189;38.790;-77.084;2023-02-28T00:04:03;14;13;
45440;PMS5003;31189;38.790;-77.084;2023-02-28T00:06:31;12;10;
45440;PMS5003;31189;38.790;-77.084;2023-02-28T00:08:59;10;10;
45440;PMS5003;31189;38.790;-77.084;2023-02-28T00:11:26;14;10;
45440;PMS5003;31189;38.790;-77.084;2023-02-28T00:13:55;10;8;
45440;PMS5003;31189;38.790;-77.084;2023-02-28T00:16:23;12;10;
45440;PMS5003;31189;38.790;-77.084;2023-02-28T00:18:51;12;10;
45440;PMS5003;31189;38.790;-77.084;2023-02-28T00:21:19;11;11;
45440;PMS5003;31189;38.790;-77.084;2023-02-28T00:23:47;18;13;
45440;PMS5003;31189;38.790;-77.084;2023-02-28T00:26:15;10;10;
45440;PMS5003;31189;38.790;-77.084;2023-02-28T00:28:43;17;13;
45440;PMS5003;31189;38.790;-77.084;2023-02-28T00:31:11;24;14;
45440;PMS5003;31189;38.790;-77.084;2023-02-28T00:33:39;17;12;
45440;PMS5003;31189;38.790;-77.084;2023-02-28T00:36:08;13;12;
45440;PMS5003;31189;38.790;-77.084;2023-02-28T00:38:37;91;66;
45440;PMS5003;31189;38.790;-77.084;2023-02-28T00:41:07;23;18;
45440;PMS5003;31189;38.790;-77.084;2023-02-28T00:43:36;13;13;
45440;PMS5003;31189;38.790;-77.084;2023-02-28T00:46:05;25;14;
45440;PMS5003;31189;38.790;-77.084;2023-02-28T00:48:33;12;12;
45440;PMS5003;31189;38.790;-77.084;2023-02-28T00:51:01;18;14;
45440;PMS5003;31189;38.790;-77.084;2023-02-28T00:53:29;17;14;
45440;PMS5003;31189;38.790;-77.084;2023-02-28T00:55:57;17;15;
45440;PMS5003;31189;38.790;-77.084;2023-02-28T00:58:26;14;13;
45440;PMS5003;31189;38.790;-77.084;2023-02-28T01:00:54;18;12;
45440;PMS5003;31189;38.790;-77.084;2023-02-28T01:03:23;15;13;
45440;PMS5003;31189;38.790;-77.084;2023-02-28T01:05:51;18;12;
45440;PMS5003;31189;38.790;-77.084;2023-02-28T01:08:19;13;12;
45440;PMS5003;31189;38.790;-77.084;2023-02-28T01:10:47;16;13;
45440;PMS5003;31189;38.790;-77.084;2023-02-28T01:13:15;15;15;
45440;PMS5003;31189;38.790;-77.084;2023-02-28T01:15:45;15;13;
45440;PMS5003;31189;38.790;-77.084;2023-02-28T01:18:16;16;13;
45440;PMS5003;31189;38.790;-77.084;2023-02-28T01:20:45;17;12;
45440;PMS5003;31189;38.790;-77.084;2023-02-28T01:23:12;19;16;
45440;PMS5003;31189;38.790;-77.084;2023-02-28T01:25:40;18;15;
45440;PMS5003;31189;38.790;-77.084;2023-02-28T01:28:08;31;16;
45440;PMS5003;31189;38.790;-77.084;2023-02-28T01:30:36;19;15;
45440;PMS5003;31189;38.790;-77.084;2023-02-28T01:33:04;25;14;
45440;PMS5003;31189;38.790;-77.084;2023-02-28T01:35:32;16;15;
45440;PMS5003;31189;38.790;-77.084;2023-02-28T01:38:00;15;13;
45440;PMS5003;31189;38.790;-77.084;2023-02-28T01:40:28;18;16;
45440;PMS5003;31189;38.790;-77.084;2023-02-28T01:42:56;17;14;
45440;PMS5003;31189;38.790;-77.084;2023-02-28T01:45:26;12;12;
45440;PMS5003;31189;38.790;-77.084;2023-02-28T01:47:57;16;14;
45440;PMS5003;31189;38.790;-77.084;2023-02-28T01:50:29;15;12;
45440;PMS5003;31189;38.790;-77.084;2023-02-28T01:53:04;19;17;
45440;PMS5003;31189;38.790;-77.084;2023-02-28T01:55:36;13;13;
45440;PMS5003;31189;38.790;-77.084;2023-02-28T01:58:05;16;14;
45440;PMS5003;31189;38.790;-77.084;2023-02-28T02:00:35;15;13;
45440;PMS5003;31189;38.790;-77.084;2023-02-28T02:03:05;20;15;
45440;PMS5003;31189;38.790;-77.084;2023-02-28T02:05:38;19;13;
45440;PMS5003;31189;38.790;-77.084;2023-02-28T02:08:09;17;15;
45440;PMS5003;31189;38.790;-77.084;2023-02-28T02:10:40;19;17;
45440;PMS5003;31189;38.790;-77.084;2023-02-28T02:13:18;16;14;
45440;PMS5003;31189;38.790;-77.084;2023-02-28T02:15:58;18;17;
45440;PMS5003;31189;38.790;-77.084;2023-02-28T02:18:34;14;14;
45440;PMS5003;31189;38.790;-77.084;2023-02-28T02:21:14;17;15;
45440;PMS5003;31189;38.790;-77.084;2023-02-28T02:24:02;16;15;
45440;PMS5003;31189;38.790;-77.084;2023-02-28T02:26:47;14;12;
45440;PMS5003;31189;38.790;-77.084;2023-02-28T02:29:28;16;13;
45440;PMS5003;31189;38.790;-77.084;2023-02-28T02:32:27;21;18;
45440;PMS5003;31189;38.790;-77.084;2023-02-28T02:35:11;15;13;
45440;PMS5003;31189;38.790;-77.084;2023-02-28T02:37:43;23;12;
45440;PMS5003;31189;38.790;-77.084;2023-02-28T02:40:16;17;15;
45440;PMS5003;31189;38.790;-77.084;2023-02-28T02:42:48;17;13;
45440;PMS5003;31189;38.790;-77.084;2023-02-28T02:45:21;16;13;
45440;PMS5003;31189;38.790;-77.084;2023-02-28T02:47:53;15;14;
45440;PMS5003;31189;38.790;-77.084;2023-02-28T02:50:27;15;13;
45440;PMS5003;31189;38.790;-77.084;2023-02-28T02:53:00;15;14;
45440;PMS5003;31189;38.790;-77.084;2023-02-28T02:55:30;18;13;
45440;PMS5003;31189;38.790;-77.084;2023-02-28T02:58:02;19;14;
45440;PMS5003;31189;38.790;-77.084;2023-02-28T03:00:34;12;12;
45440;PMS5003;31189;38.790;-77.084;2023-02-28T03:03:06;14;13;
45440;PMS5003;31189;38.790;-77.084;2023-02-28T03:05:39;26;20;
45440;PMS5003;31189;38.790;-77.084;2023-02-28T03:08:11;19;17;
45440;PMS5003;31189;38.790;-77.084;2023-02-28T03:10:40;18;16;
45440;PMS5003;31189;38.790;-77.084;2023-02-28T03:10:42;18;16;
45440;PMS5003;31189;38.790;-77.084;2023-02-28T03:13:16;21;14;
45440;PMS5003;31189;38.790;-77.084;2023-02-28T03:16:04;19;15;
45440;PMS5003;31189;38.790;-77.084;2023-02-28T03:18:43;18;12;
45440;PMS5003;31189;38.790;-77.084;2023-02-28T03:21:22;16;12;
45440;PMS5003;31189;38.790;-77.084;2023-02-28T03:23:56;17;15;
45440;PMS5003;31189;38.790;-77.084;2023-02-28T03:26:30;19;13;
45440;PMS5003;31189;38.790;-77.084;2023-02-28T03:29:02;16;12;
45440;PMS5003;31189;38.790;-77.084;2023-02-28T03:31:35;14;11;
45440;PMS5003;31189;38.790;-77.084;2023-02-28T03:34:06;14;14;
45440;PMS5003;31189;38.790;-77.084;2023-02-28T03:36:38;19;14;
45440;PMS5003;31189;38.790;-77.084;2023-02-28T03:39:08;15;12;
45440;PMS5003;31189;38.790;-77.084;2023-02-28T03:41:42;17;15;
45440;PMS5003;31189;38.790;-77.084;2023-02-28T03:44:14;25;13;
45440;PMS5003;31189;38.790;-77.084;2023-02-28T03:46:46;19;12;
45440;PMS5003;31189;38.790;-77.084;2023-02-28T03:49:20;27;15;
45440;PMS5003;31189;38.790;-77.084;2023-02-28T03:51:53;18;13;
45440;PMS5003;31189;38.790;-77.084;2023-02-28T03:54:23;18;14;
45440;PMS5003;31189;38.790;-77.084;2023-02-28T03:56:58;12;11;
45440;PMS5003;31189;38.790;-77.084;2023-02-28T03:59:32;18;15;
45440;PMS5003;31189;38.790;-77.084;2023-02-28T04:02:04;13;13;
45440;PMS5003;31189;38.790;-77.084;2023-02-28T04:04:32;17;16;
45440;PMS5003;31189;38.790;-77.084;2023-02-28T04:07:02;14;13;
45440;PMS5003;31189;38.790;-77.084;2023-02-28T04:09:31;18;15;
45440;PMS5003;31189;38.790;-77.084;2023-02-28T04:11:59;18;15;
45440;PMS5003;31189;38.790;-77.084;2023-02-28T04:14:27;27;18;
45440;PMS5003;31189;38.790;-77.084;2023-02-28T04:16:55;28;19;
45440;PMS5003;31189;38.790;-77.084;2023-02-28T04:19:23;19;18;
45440;PMS5003;31189;38.790;-77.084;2023-02-28T04:21:52;29;19;
45440;PMS5003;31189;38.790;-77.084;2023-02-28T04:24:21;20;16;
45440;PMS5003;31189;38.790;-77.084;2023-02-28T04:26:51;24;17;
45440;PMS5003;31189;38.790;-77.084;2023-02-28T04:29:22;16;16;
45440;PMS5003;31189;38.790;-77.084;2023-02-28T04:31:53;15;14;
45440;PMS5003;31189;38.790;-77.084;2023-02-28T04:34:21;18;15;
45440;PMS5003;31189;38.790;-77.084;2023-02-28T04:36:49;20;17;
45440;PMS5003;31189;38.790;-77.084;2023-02-28T04:39:18;15;13;
45440;PMS5003;31189;38.790;-77.084;2023-02-28T04:41:46;16;15;
45440;PMS5003;31189;38.790;-77.084;2023-02-28T04:44:14;19;16;
45440;PMS5003;31189;38.790;-77.084;2023-02-28T04:46:42;25;14;
45440;PMS5003;31189;38.790;-77.084;2023-02-28T04:49:11;18;16;
45440;PMS5003;31189;38.790;-77.084;2023-02-28T04:51:39;19;14;
45440;PMS5003;31189;38.790;-77.084;2023-02-28T04:54:07;24;15;
45440;PMS5003;31189;38.790;-77.084;2023-02-28T04:56:35;18;17;
45440;PMS5003;31189;38.790;-77.084;2023-02-28T04:59:03;15;14;
45440;PMS5003;31189;38.790;-77.084;2023-02-28T05:01:32;17;13;
45440;PMS5003;31189;38.790;-77.084;2023-02-28T05:04:01;15;13;
45440;PMS5003;31189;38.790;-77.084;2023-02-28T05:06:31;15;13;
45440;PMS5003;31189;38.790;-77.084;2023-02-28T05:08:59;16;13;
45440;PMS5003;31189;38.790;-77.084;2023-02-28T05:11:28;20;15;
45440;PMS5003;31189;38.790;-77.084;2023-02-28T05:13:57;18;17;
45440;PMS5003;31189;38.790;-77.084;2023-02-28T05:16:25;18;16;
45440;PMS5003;31189;38.790;-77.084;2023-02-28T05:18:53;16;15;
45440;PMS5003;31189;38.790;-77.084;2023-02-28T05:21:23;16;14;
45440;PMS5003;31189;38.790;-77.084;2023-02-28T05:23:54;24;14;
45440;PMS5003;31189;38.790;-77.084;2023-02-28T05:26:24;23;15;
45440;PMS5003;31189;38.790;-77.084;2023-02-28T05:28:52;17;16;
45440;PMS5003;31189;38.790;-77.084;2023-02-28T05:31:20;15;15;
45440;PMS5003;31189;38.790;-77.084;2023-02-28T05:33:48;17;14;
45440;PMS5003;31189;38.790;-77.084;2023-02-28T05:36:17;14;13;
45440;PMS5003;31189;38.790;-77.084;2023-02-28T05:38:46;13;9;
45440;PMS5003;31189;38.790;-77.084;2023-02-28T05:41:14;14;12;
45440;PMS5003;31189;38.790;-77.084;2023-02-28T05:43:43;18;14;
45440;PMS5003;31189;38.790;-77.084;2023-02-28T05:46:12;20;14;
45440;PMS5003;31189;38.790;-77.084;2023-02-28T05:48:41;15;14;
45440;PMS5003;31189;38.790;-77.084;2023-02-28T05:51:09;12;12;
45440;PMS5003;31189;38.790;-77.084;2023-02-28T05:53:37;18;14;
45440;PMS5003;31189;38.790;-77.084;2023-02-28T05:56:05;14;14;
45440;PMS5003;31189;38.790;-77.084;2023-02-28T05:58:33;10;10;
45440;PMS5003;31189;38.790;-77.084;2023-02-28T06:01:18;11;11;
45440;PMS5003;31189;38.790;-77.084;2023-02-28T06:03:48;10;10;
45440;PMS5003;31189;38.790;-77.084;2023-02-28T06:06:16;14;11;
45440;PMS5003;31189;38.790;-77.084;2023-02-28T06:08:44;13;12;
45440;PMS5003;31189;38.790;-77.084;2023-02-28T06:11:12;15;13;
45440;PMS5003;31189;38.790;-77.084;2023-02-28T06:13:40;12;12;
45440;PMS5003;31189;38.790;-77.084;2023-02-28T06:16:09;14;14;
45440;PMS5003;31189;38.790;-77.084;2023-02-28T06:18:38;13;11;
45440;PMS5003;31189;38.790;-77.084;2023-02-28T06:21:06;13;13;
45440;PMS5003;31189;38.790;-77.084;2023-02-28T06:23:34;15;13;
45440;PMS5003;31189;38.790;-77.084;2023-02-28T06:26:02;14;14;
45440;PMS5003;31189;38.790;-77.084;2023-02-28T06:28:29;15;14;
45440;PMS5003;31189;38.790;-77.084;2023-02-28T06:30:58;12;12;
45440;PMS5003;31189;38.790;-77.084;2023-02-28T06:33:25;16;13;
45440;PMS5003;31189;38.790;-77.084;2023-02-28T06:35:54;18;14;
45440;PMS5003;31189;38.790;-77.084;2023-02-28T06:38:21;14;14;
45440;PMS5003;31189;38.790;-77.084;2023-02-28T06:40:53;14;13;
45440;PMS5003;31189;38.790;-77.084;2023-02-28T06:43:21;16;14;
45440;PMS5003;31189;38.790;-77.084;2023-02-28T06:45:50;23;12;
45440;PMS5003;31189;38.790;-77.084;2023-02-28T06:48:22;18;13;
45440;PMS5003;31189;38.790;-77.084;2023-02-28T06:50:50;25;16;
45440;PMS5003;31189;38.790;-77.084;2023-02-28T06:53:18;14;13;
45440;PMS5003;31189;38.790;-77.084;2023-02-28T06:55:46;15;14;
45440;PMS5003;31189;38.790;-77.084;2023-02-28T06:58:13;15;12;
45440;PMS5003;31189;38.790;-77.084;2023-02-28T07:00:42;11;11;
45440;PMS5003;31189;38.790;-77.084;2023-02-28T07:03:11;14;13;
45440;PMS5003;31189;38.790;-77.084;2023-02-28T07:05:39;16;16;
45440;PMS5003;31189;38.790;-77.084;2023-02-28T07:08:07;15;15;
45440;PMS5003;31189;38.790;-77.084;2023-02-28T07:10:36;18;17;
45440;PMS5003;31189;38.790;-77.084;2023-02-28T07:13:06;14;12;
45440;PMS5003;31189;38.790;-77.084;2023-02-28T07:15:34;11;10;
45440;PMS5003;31189;38.790;-77.084;2023-02-28T07:18:03;14;14;
45440;PMS5003;31189;38.790;-77.084;2023-02-28T07:20:30;15;15;
45440;PMS5003;31189;38.790;-77.084;2023-02-28T07:22:58;14;13;
45440;PMS5003;31189;38.790;-77.084;2023-02-28T07:25:26;16;16;
45440;PMS5003;31189;38.790;-77.084;2023-02-28T07:27:56;14;14;
45440;PMS5003;31189;38.790;-77.084;2023-02-28T07:30:25;17;14;
45440;PMS5003;31189;38.790;-77.084;2023-02-28T07:32:53;16;15;
45440;PMS5003;31189;38.790;-77.084;2023-02-28T07:35:20;16;16;
45440;PMS5003;31189;38.790;-77.084;2023-02-28T07:37:48;16;15;
45440;PMS5003;31189;38.790;-77.084;2023-02-28T07:40:16;24;14;
45440;PMS5003;31189;38.790;-77.084;2023-02-28T07:42:44;15;14;
45440;PMS5003;31189;38.790;-77.084;2023-02-28T07:45:12;17;16;
45440;PMS5003;31189;38.790;-77.084;2023-02-28T07:47:41;16;14;
45440;PMS5003;31189;38.790;-77.084;2023-02-28T07:50:10;16;15;
45440;PMS5003;31189;38.790;-77.084;2023-02-28T07:52:40;21;19;
45440;PMS5003;31189;38.790;-77.084;2023-02-28T07:55:08;14;14;
45440;PMS5003;31189;38.790;-77.084;2023-02-28T07:57:37;19;15;
45440;PMS5003;31189;38.790;-77.084;2023-02-28T08:00:05;18;17;
45440;PMS5003;31189;38.790;-77.084;2023-02-28T08:02:37;15;14;
45440;PMS5003;31189;38.790;-77.084;2023-02-28T08:05:06;15;14;
45440;PMS5003;31189;38.790;-77.084;2023-02-28T08:07:35;19;19;
45440;PMS5003;31189;38.790;-77.084;2023-02-28T08:10:03;15;15;
45440;PMS5003;31189;38.790;-77.084;2023-02-28T08:12:32;19;16;
45440;PMS5003;31189;38.790;-77.084;2023-02-28T08:15:00;18;14;
45440;PMS5003;31189;38.790;-77.084;2023-02-28T08:17:28;17;17;
45440;PMS5003;31189;38.790;-77.084;2023-02-28T08:19:56;13;13;
45440;PMS5003;31189;38.790;-77.084;2023-02-28T08:22:25;15;12;
45440;PMS5003;31189;38.790;-77.084;2023-02-28T08:24:53;15;15;
45440;PMS5003;31189;38.790;-77.084;2023-02-28T08:27:21;19;18;
45440;PMS5003;31189;38.790;-77.084;2023-02-28T08:29:49;18;17;
45440;PMS5003;31189;38.790;-77.084;2023-02-28T08:32:17;28;14;
45440;PMS5003;31189;38.790;-77.084;2023-02-28T08:34:45;28;18;
45440;PMS5003;31189;38.790;-77.084;2023-02-28T08:37:12;17;17;
45440;PMS5003;31189;38.790;-77.084;2023-02-28T08:39:41;14;14;
45440;PMS5003;31189;38.790;-77.084;2023-02-28T08:42:08;19;18;
45440;PMS5003;31189;38.790;-77.084;2023-02-28T08:44:36;21;18;
45440;PMS5003;31189;38.790;-77.084;2023-02-28T08:47:04;24;20;
45440;PMS5003;31189;38.790;-77.084;2023-02-28T08:49:33;33;22;
45440;PMS5003;31189;38.790;-77.084;2023-02-28T08:52:00;35;25;
45440;PMS5003;31189;38.790;-77.084;2023-02-28T08:54:28;27;21;
45440;PMS5003;31189;38.790;-77.084;2023-02-28T08:56:56;21;20;
45440;PMS5003;31189;38.790;-77.084;2023-02-28T08:59:24;23;22;
45440;PMS5003;31189;38.790;-77.084;2023-02-28T09:01:53;37;25;
45440;PMS5003;31189;38.790;-77.084;2023-02-28T09:04:21;30;23;
45440;PMS5003;31189;38.790;-77.084;2023-02-28T09:06:49;37;25;
45440;PMS5003;31189;38.790;-77.084;2023-02-28T09:09:17;23;22;
45440;PMS5003;31189;38.790;-77.084;2023-02-28T09:11:45;32;29;
45440;PMS5003;31189;38.790;-77.084;2023-02-28T09:14:13;30;25;
45440;PMS5003;31189;38.790;-77.084;2023-02-28T09:16:41;31;24;
45440;PMS5003;31189;38.790;-77.084;2023-02-28T09:19:10;33;23;
45440;PMS5003;31189;38.790;-77.084;2023-02-28T09:21:39;24;22;
45440;PMS5003;31189;38.790;-77.084;2023-02-28T09:24:07;29;21;
45440;PMS5003;31189;38.790;-77.084;2023-02-28T09:26:35;28;24;
45440;PMS5003;31189;38.790;-77.084;2023-02-28T09:29:04;26;23;
45440;PMS5003;31189;38.790;-77.084;2023-02-28T09:31:32;34;23;
45440;PMS5003;31189;38.790;-77.084;2023-02-28T09:34:00;24;22;
45440;PMS5003;31189;38.790;-77.084;2023-02-28T09:36:27;23;18;
45440;PMS5003;31189;38.790;-77.084;2023-02-28T09:38:55;22;22;
45440;PMS5003;31189;38.790;-77.084;2023-02-28T09:41:24;31;18;
45440;PMS5003;31189;38.790;-77.084;2023-02-28T09:43:55;33;22;
45440;PMS5003;31189;38.790;-77.084;2023-02-28T09:46:29;22;21;
45440;PMS5003;31189;38.790;-77.084;2023-02-28T09:49:00;29;23;
45440;PMS5003;31189;38.790;-77.084;2023-02-28T09:51:37;27;23;
45440;PMS5003;31189;38.790;-77.084;2023-02-28T09:54:13;26;23;
45440;PMS5003;31189;38.790;-77.084;2023-02-28T09:56:43;28;24;
45440;PMS5003;31189;38.790;-77.084;2023-02-28T09:59:18;23;23;
45440;PMS5003;31189;38.790;-77.084;2023-02-28T10:01:57;28;25;
45440;PMS5003;31189;38.790;-77.084;2023-02-28T10:04:41;34;22;
45440;PMS5003;31189;38.790;-77.084;2023-02-28T10:07:17;36;27;
45440;PMS5003;31189;38.790;-77.084;2023-02-28T10:09:52;29;28;
45440;PMS5003;31189;38.790;-77.084;2023-02-28T10:12:26;36;29;
45440;PMS5003;31189;38.790;-77.084;2023-02-28T10:14:56;42;32;
45440;PMS5003;31189;38.790;-77.084;2023-02-28T10:17:26;35;32;
45440;PMS5003;31189;38.790;-77.084;2023-02-28T10:20:04;33;30;
45440;PMS5003;31189;38.790;-77.084;2023-02-28T10:22:41;42;28;
45440;PMS5003;31189;38.790;-77.084;2023-02-28T10:25:20;40;26;
45440;PMS5003;31189;38.790;-77.084;2023-02-28T10:27:50;38;31;
45440;PMS5003;31189;38.790;-77.084;2023-02-28T10:30:23;42;29;
45440;PMS5003;31189;38.790;-77.084;2023-02-28T10:32:51;44;29;
45440;PMS5003;31189;38.790;-77.084;2023-02-28T10:35:20;43;31;
45440;PMS5003;31189;38.790;-77.084;2023-02-28T10:37:50;36;32;
45440;PMS5003;31189;38.790;-77.084;2023-02-28T10:40:30;37;31;
45440;PMS5003;31189;38.790;-77.084;2023-02-28T10:43:00;41;25;
45440;PMS5003;31189;38.790;-77.084;2023-02-28T10:45:30;47;33;
45440;PMS5003;31189;38.790;-77.084;2023-02-28T10:48:01;36;27;
45440;PMS5003;31189;38.790;-77.084;2023-02-28T10:50:33;29;26;
45440;PMS5003;31189;38.790;-77.084;2023-02-28T10:53:07;43;31;
45440;PMS5003;31189;38.790;-77.084;2023-02-28T10:55:43;43;30;
45440;PMS5003;31189;38.790;-77.084;2023-02-28T10:58:21;47;29;
45440;PMS5003;31189;38.790;-77.084;2023-02-28T11:00:49;37;27;
45440;PMS5003;31189;38.790;-77.084;2023-02-28T11:03:30;30;27;
45440;PMS5003;31189;38.790;-77.084;2023-02-28T11:06:04;34;30;
45440;PMS5003;31189;38.790;-77.084;2023-02-28T11:08:34;42;30;
45440;PMS5003;31189;38.790;-77.084;2023-02-28T11:11:10;24;23;
45440;PMS5003;31189;38.790;-77.084;2023-02-28T11:13:37;30;28;
45440;PMS5003;31189;38.790;-77.084;2023-02-28T11:16:06;37;24;
45440;PMS5003;31189;38.790;-77.084;2023-02-28T11:18:38;40;27;
45440;PMS5003;31189;38.790;-77.084;2023-02-28T11:21:15;30;25;
45440;PMS5003;31189;38.790;-77.084;2023-02-28T11:23:46;45;31;
45440;PMS5003;31189;38.790;-77.084;2023-02-28T11:26:16;41;29;
45440;PMS5003;31189;38.790;-77.084;2023-02-28T11:29:03;28;27;
45440;PMS5003;31189;38.790;-77.084;2023-02-28T11:31:39;31;25;
45440;PMS5003;31189;38.790;-77.084;2023-02-28T11:34:22;40;30;
45440;PMS5003;31189;38.790;-77.084;2023-02-28T11:36:51;33;24;
45440;PMS5003;31189;38.790;-77.084;2023-02-28T11:39:23;28;27;
45440;PMS5003;31189;38.790;-77.084;2023-02-28T11:41:56;39;30;
45440;PMS5003;31189;38.790;-77.084;2023-02-28T11:44:38;30;26;
45440;PMS5003;31189;38.790;-77.084;2023-02-28T11:47:26;26;23;
45440;PMS5003;31189;38.790;-77.084;2023-02-28T11:50:12;31;28;
45440;PMS5003;31189;38.790;-77.084;2023-02-28T11:52:52;37;28;
45440;PMS5003;31189;38.790;-77.084;2023-02-28T11:55:23;42;28;
45440;PMS5003;31189;38.790;-77.084;2023-02-28T11:57:59;31;28;
45440;PMS5003;31189;38.790;-77.084;2023-02-28T12:00:57;40;33;
45440;PMS5003;31189;38.790;-77.084;2023-02-28T12:03:39;46;31;
45440;PMS5003;31189;38.790;-77.084;2023-02-28T12:06:17;31;27;
45440;PMS5003;31189;38.790;-77.084;2023-02-28T12:08:56;33;29;
45440;PMS5003;31189;38.790;-77.084;2023-02-28T12:11:34;40;30;
45440;PMS5003;31189;38.790;-77.084;2023-02-28T12:14:22;42;28;
45440;PMS5003;31189;38.790;-77.084;2023-02-28T12:17:11;40;30;
45440;PMS5003;31189;38.790;-77.084;2023-02-28T12:19:50;41;29;
45440;PMS5003;31189;38.790;-77.084;2023-02-28T12:22:28;28;26;
45440;PMS5003;31189;38.790;-77.084;2023-02-28T12:26:37;29;27;
45440;PMS5003;31189;38.790;-77.084;2023-02-28T12:29:12;45;31;
45440;PMS5003;31189;38.790;-77.084;2023-02-28T12:31:46;27;27;
45440;PMS5003;31189;38.790;-77.084;2023-02-28T12:34:19;34;32;
45440;PMS5003;31189;38.790;-77.084;2023-02-28T12:36:49;39;31;
45440;PMS5003;31189;38.790;-77.084;2023-02-28T12:39:22;36;28;
45440;PMS5003;31189;38.790;-77.084;2023-02-28T12:41:54;34;28;
45440;PMS5003;31189;38.790;-77.084;2023-02-28T12:44:28;34;31;
45440;PMS5003;31189;38.790;-77.084;2023-02-28T12:47:01;31;29;
45440;PMS5003;31189;38.790;-77.084;2023-02-28T12:49:32;38;33;
45440;PMS5003;31189;38.790;-77.084;2023-02-28T12:52:05;41;33;
45440;PMS5003;31189;38.790;-77.084;2023-02-28T12:54:35;32;28;
45440;PMS5003;31189;38.790;-77.084;2023-02-28T12:57:12;37;30;
45440;PMS5003;31189;38.790;-77.084;2023-02-28T12:59:46;44;34;
45440;PMS5003;31189;38.790;-77.084;2023-02-28T13:02:22;32;28;
45440;PMS5003;31189;38.790;-77.084;2023-02-28T13:03:42;32;28;
45440;PMS5003;31189;38.790;-77.084;2023-02-28T13:06:23;45;31;
45440;PMS5003;31189;38.790;-77.084;2023-02-28T13:09:05;40;28;
45440;PMS5003;31189;38.790;-77.084;2023-02-28T13:11:39;45;29;
45440;PMS5003;31189;38.790;-77.084;2023-02-28T13:14:18;32;30;
45440;PMS5003;31189;38.790;-77.084;2023-02-28T13:16:52;35;33;
45440;PMS5003;31189;38.790;-77.084;2023-02-28T13:19:25;35;30;
45440;PMS5003;31189;38.790;-77.084;2023-02-28T13:21:56;31;30;
45440;PMS5003;31189;38.790;-77.084;2023-02-28T13:24:37;33;29;
45440;PMS5003;31189;38.790;-77.084;2023-02-28T13:27:19;38;29;
45440;PMS5003;31189;38.790;-77.084;2023-02-28T13:29:51;38;30;
45440;PMS5003;31189;38.790;-77.084;2023-02-28T13:32:27;35;30;
45440;PMS5003;31189;38.790;-77.084;2023-02-28T13:35:35;49;31;
45440;PMS5003;31189;38.790;-77.084;2023-02-28T13:38:38;40;31;
45440;PMS5003;31189;38.790;-77.084;2023-02-28T13:41:42;40;31;
45440;PMS5003;31189;38.790;-77.084;2023-02-28T13:44:11;35;29;
45440;PMS5003;31189;38.790;-77.084;2023-02-28T13:47:19;35;30;
45440;PMS5003;31189;38.790;-77.084;2023-02-28T13:49:50;36;28;
45440;PMS5003;31189;38.790;-77.084;2023-02-28T13:52:20;34;27;
45440;PMS5003;31189;38.790;-77.084;2023-02-28T13:54:53;35;30;
45440;PMS5003;31189;38.790;-77.084;2023-02-28T13:57:38;42;28;
45440;PMS5003;31189;38.790;-77.084;2023-02-28T14:00:22;40;32;
45440;PMS5003;31189;38.790;-77.084;2023-02-28T14:03:06;33;26;
45440;PMS5003;31189;38.790;-77.084;2023-02-28T14:05:46;36;29;
45440;PMS5003;31189;38.790;-77.084;2023-02-28T14:08:34;35;26;
45440;PMS5003;31189;38.790;-77.084;2023-02-28T14:11:03;43;30;
45440;PMS5003;31189;38.790;-77.084;2023-02-28T14:13:38;39;27;
45440;PMS5003;31189;38.790;-77.084;2023-02-28T14:16:08;36;34;
45440;PMS5003;31189;38.790;-77.084;2023-02-28T14:18:37;38;28;
45440;PMS5003;31189;38.790;-77.084;2023-02-28T14:21:10;44;31;
45440;PMS5003;31189;38.790;-77.084;2023-02-28T14:23:46;32;29;
45440;PMS5003;31189;38.790;-77.084;2023-02-28T14:26:43;43;32;
45440;PMS5003;31189;38.790;-77.084;2023-02-28T14:29:33;35;27;
45440;PMS5003;31189;38.790;-77.084;2023-02-28T14:32:11;36;27;
45440;PMS5003;31189;38.790;-77.084;2023-02-28T14:34:49;48;35;
45440;PMS5003;31189;38.790;-77.084;2023-02-28T14:37:25;35;33;
45440;PMS5003;31189;38.790;-77.084;2023-02-28T14:39:56;40;32;
45440;PMS5003;31189;38.790;-77.084;2023-02-28T14:42:29;44;35;
45440;PMS5003;31189;38.790;-77.084;2023-02-28T14:44:59;50;38;
45440;PMS5003;31189;38.790;-77.084;2023-02-28T14:47:28;45;33;
45440;PMS5003;31189;38.790;-77.084;2023-02-28T14:49:59;37;29;
45440;PMS5003;31189;38.790;-77.084;2023-02-28T14:52:29;41;32;
45440;PMS5003;31189;38.790;-77.084;2023-02-28T14:54:59;49;35;
45440;PMS5003;31189;38.790;-77.084;2023-02-28T14:57:31;40;33;
45440;PMS5003;31189;38.790;-77.084;2023-02-28T15:00:03;44;34;
45440;PMS5003;31189;38.790;-77.084;2023-02-28T15:02:38;39;32;
45440;PMS5003;31189;38.790;-77.084;2023-02-28T15:05:23;35;33;
45440;PMS5003;31189;38.790;-77.084;2023-02-28T15:08:01;43;32;
45440;PMS5003;31189;38.790;-77.084;2023-02-28T15:10:31;44;34;
45440;PMS5003;31189;38.790;-77.084;2023-02-28T15:12:59;37;32;
45440;PMS5003;31189;38.790;-77.084;2023-02-28T15:15:33;44;34;
45440;PMS5003;31189;38.790;-77.084;2023-02-28T15:18:08;34;34;
45440;PMS5003;31189;38.790;-77.084;2023-02-28T15:20:47;40;32;
45440;PMS5003;31189;38.790;-77.084;2023-02-28T15:23:15;34;33;
45440;PMS5003;31189;38.790;-77.084;2023-02-28T15:25:44;43;35;
45440;PMS5003;31189;38.790;-77.084;2023-02-28T15:28:14;38;32;
45440;PMS5003;31189;38.790;-77.084;2023-02-28T15:30:51;36;35;
45440;PMS5003;31189;38.790;-77.084;2023-02-28T15:33:22;48;34;
45440;PMS5003;31189;38.790;-77.084;2023-02-28T15:35:51;46;35;
45440;PMS5003;31189;38.790;-77.084;2023-02-28T15:38:32;36;34;
45440;PMS5003;31189;38.790;-77.084;2023-02-28T15:41:01;36;32;
45440;PMS5003;31189;38.790;-77.084;2023-02-28T15:43:30;43;32;
45440;PMS5003;31189;38.790;-77.084;2023-02-28T15:45:59;37;30;
45440;PMS5003;31189;38.790;-77.084;2023-02-28T15:48:31;44;29;
45440;PMS5003;31189;38.790;-77.084;2023-02-28T15:51:02;44;32;
45440;PMS5003;31189;38.790;-77.084;2023-02-28T15:53:34;45;32;
45440;PMS5003;31189;38.790;-77.084;2023-02-28T15:56:05;40;34;
45440;PMS5003;31189;38.790;-77.084;2023-02-28T15:58:49;44;35;
45440;PMS5003;31189;38.790;-77.084;2023-02-28T16:01:20;37;31;
45440;PMS5003;31189;38.790;-77.084;2023-02-28T16:03:53;32;30;
45440;PMS5003;31189;38.790;-77.084;2023-02-28T16:06:26;36;30;
45440;PMS5003;31189;38.790;-77.084;2023-02-28T16:09:00;32;30;
45440;PMS5003;31189;38.790;-77.084;2023-02-28T16:11:29;34;31;
45440;PMS5003;31189;38.790;-77.084;2023-02-28T16:14:00;35;33;
45440;PMS5003;31189;38.790;-77.084;2023-02-28T16:16:28;33;31;